createdAt,value
2018-09-05T00:00:46.255Z,79.21
2018-09-05T00:02:51.470Z,79.15
2018-09-05T00:04:57.414Z,79.54
2018-09-05T00:07:02.437Z,79.62
2018-09-05T00:09:08.935Z,79.30
2018-09-05T00:11:13.952Z,79.59
2018-09-05T00:13:19.031Z,79.45
2018-09-05T00:15:24.080Z,79.54
2018-09-05T00:17:29.114Z,79.73
2018-09-05T00:19:34.093Z,79.47
2018-09-05T00:21:39.168Z,79.44
2018-09-05T00:23:44.079Z,79.47
2018-09-05T00:25:48.953Z,79.79
2018-09-05T00:27:54.070Z,79.85
2018-09-05T00:29:59.196Z,79.85
2018-09-05T00:32:04.205Z,79.75
2018-09-05T00:34:09.152Z,79.87
2018-09-05T00:36:14.081Z,79.87
2018-09-05T00:38:19.116Z,79.78
2018-09-05T00:40:24.199Z,79.57
2018-09-05T00:42:29.295Z,79.68
2018-09-05T00:44:34.284Z,79.95
2018-09-05T00:46:39.290Z,79.61
2018-09-05T00:48:44.177Z,79.93
2018-09-05T00:50:49.234Z,79.73
2018-09-05T00:52:54.251Z,80.02
2018-09-05T00:54:59.172Z,80.07
2018-09-05T00:57:04.122Z,80.24
2018-09-05T00:59:09.049Z,80.05
2018-09-05T01:01:13.959Z,79.91
2018-09-05T01:03:19.293Z,80.13
2018-09-05T01:05:24.410Z,79.96
2018-09-05T01:07:29.986Z,79.84
2018-09-05T01:09:35.011Z,79.96
2018-09-05T01:11:40.059Z,80.04
2018-09-05T01:13:44.934Z,80.14
2018-09-05T01:15:50.061Z,80.07
2018-09-05T01:17:54.967Z,80.46
2018-09-05T01:19:59.975Z,80.38
2018-09-05T01:22:05.030Z,80.46
2018-09-05T01:24:10.157Z,80.26
2018-09-05T01:26:15.090Z,80.21
2018-09-05T01:28:20.005Z,80.58
2018-09-05T01:30:27.970Z,80.68
2018-09-05T01:32:33.860Z,80.25
2018-09-05T01:34:40.083Z,80.48
2018-09-05T01:36:45.045Z,80.70
2018-09-05T01:38:49.897Z,80.88
2018-09-05T01:40:54.807Z,80.84
2018-09-05T01:43:00.078Z,80.58
2018-09-05T01:45:11.700Z,80.51
2018-09-05T01:47:16.582Z,80.60
2018-09-05T01:49:21.866Z,80.98
2018-09-05T01:51:27.073Z,80.70
2018-09-05T01:53:32.098Z,80.73
2018-09-05T01:55:37.011Z,80.82
2018-09-05T01:57:41.879Z,80.97
2018-09-05T01:59:46.988Z,80.77
2018-09-05T02:01:52.206Z,80.61
2018-09-05T02:03:57.235Z,80.91
2018-09-05T02:06:02.179Z,80.89
2018-09-05T02:08:07.141Z,80.85
2018-09-05T02:10:12.193Z,80.91
2018-09-05T02:12:17.107Z,80.67
2018-09-05T02:14:22.232Z,80.53
2018-09-05T02:16:27.260Z,80.59
2018-09-05T02:18:32.171Z,80.72
2018-09-05T02:20:37.055Z,80.87
2018-09-05T02:22:42.466Z,80.98
2018-09-05T02:24:47.478Z,80.96
2018-09-05T02:26:52.431Z,80.98
2018-09-05T02:28:57.381Z,81.09
2018-09-05T02:31:02.477Z,80.96
2018-09-05T02:33:07.636Z,80.81
2018-09-05T02:35:12.601Z,81.10
2018-09-05T02:37:17.695Z,81.03
2018-09-05T02:39:23.462Z,80.79
2018-09-05T02:41:29.224Z,80.79
2018-09-05T02:43:39.090Z,80.76
2018-09-05T02:45:44.012Z,81.07
2018-09-05T02:47:48.996Z,80.63
2018-09-05T02:49:53.987Z,80.63
2018-09-05T02:51:58.924Z,80.57
2018-09-05T02:54:03.951Z,80.61
2018-09-05T02:56:08.935Z,80.33
2018-09-05T02:58:13.949Z,80.21
2018-09-05T03:00:19.024Z,80.07
2018-09-05T03:02:24.046Z,80.18
2018-09-05T03:04:28.961Z,80.04
2018-09-05T03:06:34.053Z,80.00
2018-09-05T03:08:39.173Z,80.31
2018-09-05T03:10:44.150Z,79.95
2018-09-05T03:12:49.084Z,80.00
2018-09-05T03:14:54.044Z,79.96
2018-09-05T03:16:59.036Z,80.31
2018-09-05T03:19:04.337Z,80.05
2018-09-05T03:21:09.110Z,80.20
2018-09-05T03:23:14.245Z,80.14
2018-09-05T03:25:19.379Z,80.19
2018-09-05T03:27:24.475Z,80.38
2018-09-05T03:29:29.605Z,80.58
2018-09-05T03:31:34.644Z,80.19
2018-09-05T03:33:39.888Z,80.21
2018-09-05T03:35:46.715Z,80.43
2018-09-05T03:37:51.780Z,80.21
2018-09-05T03:39:56.837Z,80.59
2018-09-05T03:42:01.857Z,80.17
2018-09-05T03:44:07.215Z,80.36
2018-09-05T03:46:13.111Z,80.07
2018-09-05T03:48:18.095Z,80.25
2018-09-05T03:50:23.467Z,80.46
2018-09-05T03:52:28.574Z,79.95
2018-09-05T03:54:33.525Z,80.29
2018-09-05T03:56:38.823Z,79.91
2018-09-05T03:58:45.087Z,80.29
2018-09-05T04:00:50.049Z,79.73
2018-09-05T04:02:55.117Z,79.96
2018-09-05T04:05:01.221Z,80.26
2018-09-05T04:07:06.329Z,79.77
2018-09-05T04:09:11.612Z,80.15
2018-09-05T04:11:16.747Z,79.75
2018-09-05T04:13:21.905Z,79.83
2018-09-05T04:15:27.140Z,79.51
2018-09-05T04:17:32.268Z,79.49
2018-09-05T04:19:37.426Z,79.87
2018-09-05T04:21:42.455Z,79.67
2018-09-05T04:23:49.515Z,79.73
2018-09-05T04:25:54.564Z,79.56
2018-09-05T04:27:59.625Z,79.32
2018-09-05T04:30:04.684Z,79.27
2018-09-05T04:32:09.774Z,78.94
2018-09-05T04:34:14.899Z,78.91
2018-09-05T04:36:19.895Z,78.98
2018-09-05T04:38:24.933Z,78.91
2018-09-05T04:40:30.264Z,78.68
2018-09-05T04:42:35.635Z,79.12
2018-09-05T04:44:40.945Z,78.98
2018-09-05T04:46:46.067Z,78.94
2018-09-05T04:48:52.282Z,78.77
2018-09-05T04:50:57.235Z,79.25
2018-09-05T04:53:02.333Z,78.91
2018-09-05T04:55:07.828Z,79.02
2018-09-05T04:57:12.812Z,79.13
2018-09-05T04:59:17.878Z,79.25
2018-09-05T05:01:22.815Z,78.94
2018-09-05T05:03:27.858Z,78.77
2018-09-05T05:05:32.965Z,78.72
2018-09-05T05:07:37.902Z,78.83
2018-09-05T05:09:42.886Z,78.36
2018-09-05T05:11:47.888Z,78.35
2018-09-05T05:13:52.912Z,78.67
2018-09-05T05:15:57.916Z,78.19
2018-09-05T05:18:03.000Z,78.13
2018-09-05T05:20:09.137Z,78.36
2018-09-05T05:22:14.093Z,78.08
2018-09-05T05:24:19.107Z,78.04
2018-09-05T05:26:24.182Z,77.91
2018-09-05T05:28:29.215Z,77.69
2018-09-05T05:30:34.205Z,77.90
2018-09-05T05:32:39.287Z,77.78
2018-09-05T05:34:44.496Z,77.46
2018-09-05T05:36:49.726Z,77.57
2018-09-05T05:38:54.973Z,77.51
2018-09-05T05:40:59.921Z,77.27
2018-09-05T05:43:04.925Z,77.50
2018-09-05T05:45:10.097Z,77.08
2018-09-05T05:47:15.814Z,77.30
2018-09-05T05:49:20.818Z,76.94
2018-09-05T05:51:27.224Z,76.97
2018-09-05T05:53:37.380Z,76.75
2018-09-05T05:55:42.385Z,76.66
2018-09-05T05:57:47.666Z,76.28
2018-09-05T06:00:07.444Z,76.30
2018-09-05T06:02:12.389Z,76.02
2018-09-05T06:04:17.448Z,76.37
2018-09-05T06:06:22.615Z,76.34
2018-09-05T06:08:27.779Z,75.92
2018-09-05T06:10:32.850Z,75.97
2018-09-05T06:12:37.954Z,75.45
2018-09-05T06:14:43.456Z,75.16
2018-09-05T06:16:48.709Z,75.32
2018-09-05T06:18:54.879Z,74.59
2018-09-05T06:20:59.914Z,74.88
2018-09-05T06:23:05.171Z,74.56
2018-09-05T06:25:11.457Z,74.12
2018-09-05T06:27:16.643Z,73.47
2018-09-05T06:29:21.861Z,73.57
2018-09-05T06:31:26.860Z,73.31
2018-09-05T06:33:31.971Z,72.99
2018-09-05T06:35:37.328Z,72.79
2018-09-05T06:37:42.635Z,72.58
2018-09-05T06:39:48.042Z,72.75
2018-09-05T06:41:53.124Z,72.04
2018-09-05T06:43:58.413Z,71.81
2018-09-05T06:46:04.069Z,71.35
2018-09-05T06:48:09.275Z,71.20
2018-09-05T06:50:14.921Z,71.30
2018-09-05T06:52:20.305Z,71.07
2018-09-05T06:54:25.326Z,70.99
2018-09-05T06:56:30.840Z,70.45
2018-09-05T06:58:37.969Z,69.79
2018-09-05T07:00:43.051Z,69.78
2018-09-05T07:02:48.435Z,69.18
2018-09-05T07:04:53.709Z,68.97
2018-09-05T07:06:58.903Z,68.85
2018-09-05T07:09:03.946Z,68.90
2018-09-05T07:11:09.091Z,68.78
2018-09-05T07:13:14.075Z,67.97
2018-09-05T07:15:19.174Z,68.74
2018-09-05T07:17:24.271Z,68.56
2018-09-05T07:19:29.320Z,68.37
2018-09-05T07:21:35.126Z,67.86
2018-09-05T07:23:40.028Z,67.45
2018-09-05T07:25:44.975Z,67.48
2018-09-05T07:27:50.788Z,67.28
2018-09-05T07:29:56.866Z,66.95
2018-09-05T07:32:02.212Z,67.06
2018-09-05T07:34:07.285Z,66.57
2018-09-05T07:36:13.142Z,67.06
2018-09-05T07:38:18.202Z,66.39
2018-09-05T07:40:23.366Z,66.27
2018-09-05T07:42:28.319Z,65.94
2018-09-05T07:44:34.087Z,66.31
2018-09-05T07:46:39.299Z,66.20
2018-09-05T07:48:44.294Z,66.02
2018-09-05T07:50:49.365Z,65.65
2018-09-05T07:52:54.321Z,65.33
2018-09-05T07:54:59.200Z,65.43
2018-09-05T07:57:04.406Z,65.72
2018-09-05T07:59:09.656Z,65.65
2018-09-05T08:01:14.607Z,65.58
2018-09-05T08:03:19.780Z,65.11
2018-09-05T08:05:24.703Z,64.80
2018-09-05T08:07:29.659Z,65.00
2018-09-05T08:09:34.800Z,64.86
2018-09-05T08:11:39.951Z,65.07
2018-09-05T08:13:44.759Z,64.84
2018-09-05T08:15:49.760Z,64.75
2018-09-05T08:17:55.015Z,64.14
2018-09-05T08:20:00.296Z,63.74
2018-09-05T08:22:05.203Z,63.77
2018-09-05T08:24:10.160Z,63.33
2018-09-05T08:26:15.067Z,63.89
2018-09-05T08:28:19.957Z,64.13
2018-09-05T08:30:24.990Z,64.21
2018-09-05T08:32:30.035Z,63.35
2018-09-05T08:34:34.975Z,63.27
2018-09-05T08:36:40.259Z,62.54
2018-09-05T08:38:45.141Z,61.77
2018-09-05T08:40:50.802Z,61.65
2018-09-05T08:42:55.716Z,61.87
2018-09-05T08:45:01.439Z,61.48
2018-09-05T08:47:06.374Z,61.49
2018-09-05T08:49:11.417Z,60.76
2018-09-05T08:51:16.791Z,60.15
2018-09-05T08:53:22.395Z,59.54
2018-09-05T08:55:27.453Z,59.67
2018-09-05T08:57:33.333Z,59.85
2018-09-05T08:59:38.628Z,59.50
2018-09-05T09:01:43.664Z,59.22
2018-09-05T09:03:48.679Z,58.09
2018-09-05T09:05:53.613Z,57.58
2018-09-05T09:07:59.985Z,56.71
2018-09-05T09:10:05.030Z,56.24
2018-09-05T09:12:10.305Z,56.03
2018-09-05T09:14:15.597Z,56.04
2018-09-05T09:16:20.537Z,55.51
2018-09-05T09:18:25.686Z,55.05
2018-09-05T09:20:31.424Z,54.83
2018-09-05T09:22:36.420Z,54.39
2018-09-05T09:24:43.080Z,54.53
2018-09-05T09:26:48.275Z,53.54
2018-09-05T09:28:53.491Z,53.88
2018-09-05T09:30:58.307Z,53.52
2018-09-05T09:33:03.353Z,53.07
2018-09-05T09:35:08.737Z,52.81
2018-09-05T09:37:13.653Z,52.80
2018-09-05T09:39:18.914Z,53.03
2018-09-05T09:41:23.942Z,52.31
2018-09-05T09:43:28.941Z,52.86
2018-09-05T09:45:34.015Z,52.12
2018-09-05T09:47:39.096Z,51.91
2018-09-05T09:49:44.328Z,50.77
2018-09-05T09:51:49.663Z,49.93
2018-09-05T09:53:54.883Z,49.83
2018-09-05T09:55:59.988Z,48.74
2018-09-05T09:58:04.918Z,46.86
2018-09-05T10:00:10.209Z,47.46
2018-09-05T10:02:20.427Z,47.17
2018-09-05T10:04:31.463Z,47.57
2018-09-05T10:06:41.321Z,47.59
2018-09-05T10:08:51.457Z,47.09
2018-09-05T10:11:01.588Z,47.35
2018-09-05T10:13:12.125Z,47.32
2018-09-05T10:15:22.117Z,47.13
2018-09-05T10:17:34.565Z,47.19
2018-09-05T10:19:50.813Z,47.20
2018-09-05T10:21:56.549Z,47.24
2018-09-05T10:24:01.819Z,46.65
2018-09-05T10:26:07.135Z,46.60
2018-09-05T10:28:12.628Z,46.92
2018-09-05T10:30:17.407Z,46.63
2018-09-05T10:32:22.539Z,46.43
2018-09-05T10:34:28.137Z,46.78
2018-09-05T10:36:33.045Z,45.63
2018-09-05T10:38:38.330Z,45.50
2018-09-05T10:40:43.216Z,44.95
2018-09-05T10:42:48.161Z,44.99
2018-09-05T10:44:53.999Z,43.98
2018-09-05T10:46:59.047Z,44.34
2018-09-05T10:49:03.820Z,44.63
2018-09-05T10:51:08.814Z,43.78
2018-09-05T10:53:14.281Z,43.89
2018-09-05T10:55:18.998Z,43.64
2018-09-05T10:57:24.827Z,43.84
2018-09-05T10:59:29.634Z,42.63
2018-09-05T11:01:34.616Z,41.74
2018-09-05T11:03:39.439Z,41.43
2018-09-05T11:05:44.271Z,41.16
2018-09-05T11:07:49.079Z,41.74
2018-09-05T11:09:54.033Z,41.51
2018-09-05T11:11:58.985Z,41.43
2018-09-05T11:14:04.369Z,41.48
2018-09-05T11:16:19.328Z,43.59
2018-09-05T11:18:24.256Z,42.91
2018-09-05T11:20:29.191Z,42.68
2018-09-05T11:22:33.985Z,42.96
2018-09-05T11:24:38.884Z,43.15
2018-09-05T11:26:44.094Z,43.54
2018-09-05T11:28:49.270Z,45.31
2018-09-05T11:30:54.275Z,45.09
2018-09-05T11:32:59.101Z,45.03
2018-09-05T11:35:03.981Z,45.32
2018-09-05T11:37:08.813Z,44.87
2018-09-05T11:39:14.684Z,44.92
2018-09-05T11:41:20.103Z,44.41
2018-09-05T11:43:25.431Z,45.09
2018-09-05T11:45:30.584Z,44.38
2018-09-05T11:47:35.516Z,45.28
2018-09-05T11:49:40.946Z,45.79
2018-09-05T11:51:46.731Z,44.60
2018-09-05T11:53:51.775Z,44.86
2018-09-05T11:55:56.745Z,45.01
2018-09-05T11:58:02.711Z,44.92
2018-09-05T12:00:07.867Z,44.69
2018-09-05T12:02:14.338Z,44.50
2018-09-05T12:04:19.163Z,44.80
2018-09-05T12:06:24.620Z,44.94
2018-09-05T12:08:29.710Z,44.11
2018-09-05T12:10:34.592Z,45.30
2018-09-05T12:12:39.790Z,44.52
2018-09-05T12:14:45.588Z,44.77
2018-09-05T12:16:50.707Z,44.43
2018-09-05T12:18:55.993Z,44.87
2018-09-05T12:21:01.816Z,44.58
2018-09-05T12:23:07.440Z,44.22
2018-09-05T12:25:12.503Z,44.51
2018-09-05T12:27:17.330Z,44.87
2018-09-05T12:29:22.246Z,43.34
2018-09-05T12:31:27.190Z,43.70
2018-09-05T12:33:32.094Z,44.31
2018-09-05T12:35:37.940Z,42.63
2018-09-05T12:37:42.942Z,41.98
2018-09-05T12:39:48.314Z,41.97
2018-09-05T12:41:53.298Z,41.71
2018-09-05T12:43:58.812Z,41.24
2018-09-05T12:46:03.809Z,41.67
2018-09-05T12:48:09.243Z,41.86
2018-09-05T12:50:15.371Z,41.40
2018-09-05T12:52:20.341Z,41.51
2018-09-05T12:54:25.340Z,41.37
2018-09-05T12:56:30.364Z,41.50
2018-09-05T12:58:35.320Z,40.67
2018-09-05T13:00:40.254Z,40.46
2018-09-05T13:02:45.308Z,40.40
2018-09-05T13:04:50.986Z,40.75
2018-09-05T13:06:57.501Z,40.38
2018-09-05T13:09:02.483Z,40.75
2018-09-05T13:11:07.399Z,41.01
2018-09-05T13:13:12.329Z,40.66
2018-09-05T13:15:17.314Z,40.70
2018-09-05T13:17:23.487Z,41.55
2018-09-05T13:19:28.564Z,41.67
2018-09-05T13:21:33.725Z,41.61
2018-09-05T13:23:38.984Z,40.53
2018-09-05T13:25:44.215Z,40.48
2018-09-05T13:27:49.867Z,40.13
2018-09-05T13:29:54.697Z,39.47
2018-09-05T13:32:00.773Z,39.85
2018-09-05T13:34:05.665Z,38.81
2018-09-05T13:36:12.533Z,39.33
2018-09-05T13:38:17.391Z,39.04
2018-09-05T13:40:22.344Z,38.73
2018-09-05T13:42:27.166Z,39.47
2018-09-05T13:44:32.030Z,39.38
2018-09-05T13:46:37.333Z,39.43
2018-09-05T13:48:42.243Z,39.62
2018-09-05T13:50:47.237Z,39.87
2018-09-05T13:52:52.052Z,39.79
2018-09-05T13:54:56.878Z,39.27
2018-09-05T13:57:01.792Z,38.63
2018-09-05T13:59:06.752Z,38.68
2018-09-05T14:01:11.930Z,38.88
2018-09-05T14:03:16.784Z,38.77
2018-09-05T14:05:21.594Z,38.54
2018-09-05T14:07:26.886Z,37.38
2018-09-05T14:09:32.726Z,37.84
2018-09-05T14:11:37.595Z,38.10
2018-09-05T14:13:42.697Z,38.08
2018-09-05T14:15:47.571Z,38.92
2018-09-05T14:17:52.643Z,37.91
2018-09-05T14:19:57.918Z,37.26
2018-09-05T14:22:02.778Z,37.86
2018-09-05T14:24:08.117Z,37.48
2018-09-05T14:26:14.503Z,37.60
2018-09-05T14:28:19.927Z,37.96
2018-09-05T14:30:25.001Z,37.91
2018-09-05T14:32:30.156Z,36.40
2018-09-05T14:34:35.263Z,36.88
2018-09-05T14:36:40.299Z,35.84
2018-09-05T14:38:45.106Z,35.72
2018-09-05T14:40:50.333Z,36.27
2018-09-05T14:42:55.885Z,36.19
2018-09-05T14:45:01.045Z,35.76
2018-09-05T14:47:05.909Z,36.25
2018-09-05T14:49:11.322Z,36.03
2018-09-05T14:51:16.184Z,36.39
2018-09-05T14:53:21.524Z,35.37
2018-09-05T14:55:26.386Z,36.65
2018-09-05T14:57:31.837Z,36.62
2018-09-05T14:59:40.326Z,35.54
2018-09-05T15:01:45.246Z,36.74
2018-09-05T15:03:50.398Z,36.41
2018-09-05T15:05:55.574Z,36.45
2018-09-05T15:08:00.853Z,35.91
2018-09-05T15:10:06.185Z,34.92
2018-09-05T15:12:11.184Z,35.00
2018-09-05T15:14:16.391Z,35.31
2018-09-05T15:16:22.469Z,35.68
2018-09-05T15:18:28.081Z,35.06
2018-09-05T15:20:34.014Z,35.29
2018-09-05T15:22:39.339Z,35.20
2018-09-05T15:24:44.578Z,35.44
2018-09-05T15:26:49.814Z,35.17
2018-09-05T15:28:55.133Z,35.29
2018-09-05T15:31:00.911Z,35.74
2018-09-05T15:33:06.044Z,36.13
2018-09-05T15:35:11.385Z,36.28
2018-09-05T15:37:17.011Z,36.73
2018-09-05T15:39:24.253Z,36.73
2018-09-05T15:41:30.370Z,37.30
2018-09-05T15:43:35.586Z,37.49
2018-09-05T15:45:40.991Z,37.69
2018-09-05T15:47:46.729Z,38.15
2018-09-05T15:49:51.719Z,37.72
2018-09-05T15:54:41.369Z,38.03
2018-09-05T15:56:46.066Z,37.57
2018-09-05T15:58:50.731Z,37.64
2018-09-05T16:00:55.639Z,37.79
2018-09-05T16:03:00.397Z,38.02
2018-09-05T16:05:07.521Z,37.57
2018-09-05T16:07:12.266Z,38.08
2018-09-05T16:09:17.233Z,38.49
2018-09-05T16:11:22.065Z,38.35
2018-09-05T16:13:27.099Z,38.29
2018-09-05T16:15:31.951Z,38.78
2018-09-05T16:17:36.906Z,37.90
2018-09-05T16:19:42.042Z,38.29
2018-09-05T16:21:46.961Z,38.72
2018-09-05T16:23:51.844Z,38.75
2018-09-05T16:25:56.988Z,38.82
2018-09-05T16:28:01.773Z,38.46
2018-09-05T16:30:06.659Z,37.75
2018-09-05T16:32:12.370Z,37.63
2018-09-05T16:34:17.320Z,37.54
2018-09-05T16:36:22.299Z,37.90
2018-09-05T16:38:27.313Z,38.14
2018-09-05T16:40:32.209Z,38.32
2018-09-05T16:42:37.154Z,38.16
2018-09-05T16:44:42.215Z,38.03
2018-09-05T16:46:47.509Z,38.45
2018-09-05T16:48:52.674Z,38.37
2018-09-05T16:50:57.612Z,38.41
2018-09-05T16:53:02.747Z,38.32
2018-09-05T16:55:07.821Z,37.97
2018-09-05T16:57:12.633Z,38.76
2018-09-05T16:59:17.947Z,38.90
2018-09-05T17:01:22.990Z,39.08
2018-09-05T17:03:28.459Z,39.14
2018-09-05T17:07:47.411Z,38.54
2018-09-05T17:09:54.787Z,38.68
2018-09-05T17:11:59.947Z,38.86
2018-09-05T17:14:04.829Z,39.83
2018-09-05T17:16:09.995Z,39.54
2018-09-05T17:18:15.411Z,39.23
2018-09-05T17:20:22.246Z,39.52
2018-09-05T17:22:27.389Z,39.82
2018-09-05T17:24:32.364Z,39.74
2018-09-05T17:26:38.128Z,39.96
2018-09-05T17:28:45.513Z,39.73
2018-09-05T17:30:51.111Z,39.83
2018-09-05T17:32:56.047Z,40.20
2018-09-05T17:35:01.294Z,40.32
2018-09-05T17:37:06.495Z,40.20
2018-09-05T17:39:12.486Z,40.32
2018-09-05T17:41:18.437Z,40.85
2018-09-05T17:43:24.831Z,41.17
2018-09-05T17:45:29.953Z,40.89
2018-09-05T17:47:35.198Z,41.03
2018-09-05T17:49:40.340Z,40.75
2018-09-05T17:51:45.798Z,40.70
2018-09-05T17:53:51.878Z,40.85
2018-09-05T17:55:56.774Z,40.96
2018-09-05T17:58:01.632Z,41.60
2018-09-05T18:00:07.171Z,41.64
2018-09-05T18:02:13.027Z,41.76
2018-09-05T18:04:17.840Z,41.73
2018-09-05T18:06:23.280Z,42.26
2018-09-05T18:08:28.116Z,42.08
2018-09-05T18:10:33.063Z,41.81
2018-09-05T18:12:38.251Z,41.66
2018-09-05T18:14:44.207Z,40.92
2018-09-05T18:16:49.096Z,41.49
2018-09-05T18:18:54.184Z,41.09
2018-09-05T18:20:59.034Z,41.09
2018-09-05T18:23:03.897Z,41.21
2018-09-05T18:25:09.020Z,41.68
2018-09-05T18:27:13.939Z,41.83
2018-09-05T18:29:18.948Z,42.09
2018-09-05T18:31:24.005Z,41.78
2018-09-05T18:33:28.828Z,42.46
2018-09-05T18:35:33.734Z,42.35
2018-09-05T18:37:38.733Z,42.59
2018-09-05T18:39:44.695Z,43.01
2018-09-05T18:41:49.571Z,43.46
2018-09-05T18:43:54.578Z,43.77
2018-09-05T18:45:59.475Z,43.88
2018-09-05T18:48:04.347Z,43.64
2018-09-05T18:50:09.597Z,44.38
2018-09-05T18:52:15.616Z,44.70
2018-09-05T18:54:20.741Z,44.96
2018-09-05T18:56:26.071Z,45.07
2018-09-05T18:58:31.148Z,45.46
2018-09-05T19:00:36.486Z,45.31
2018-09-05T19:02:41.409Z,45.71
2018-09-05T19:04:46.613Z,46.09
2018-09-05T19:06:51.834Z,46.22
2018-09-05T19:08:56.880Z,46.59
2018-09-05T19:11:06.569Z,46.89
2018-09-05T19:13:11.715Z,46.76
2018-09-05T19:15:17.291Z,47.22
2018-09-05T19:17:23.095Z,47.42
2018-09-05T19:19:28.666Z,47.64
2018-09-05T19:21:35.883Z,48.00
2018-09-05T19:23:43.298Z,47.49
2018-09-05T19:25:48.819Z,47.90
2018-09-05T19:27:54.836Z,47.80
2018-09-05T19:30:00.205Z,48.46
2018-09-05T19:32:05.978Z,48.17
2018-09-05T19:34:11.120Z,48.65
2018-09-05T19:36:17.150Z,48.50
2018-09-05T19:38:25.637Z,48.45
2018-09-05T19:40:33.075Z,48.95
2018-09-05T19:42:38.842Z,48.48
2018-09-05T19:44:44.949Z,48.47
2018-09-05T20:00:27.669Z,49.34
2018-09-05T20:02:33.359Z,51.01
2018-09-05T20:04:38.557Z,50.73
2018-09-05T20:06:44.342Z,50.64
2018-09-05T20:08:49.755Z,51.26
2018-09-05T20:10:56.784Z,51.75
2018-09-05T20:13:04.119Z,52.29
2018-09-05T20:15:11.252Z,51.98
2018-09-05T20:17:18.387Z,52.19
2018-09-05T20:19:24.069Z,52.19
2018-09-05T20:21:29.252Z,51.70
2018-09-05T20:23:36.363Z,51.87
2018-09-05T20:25:41.838Z,51.46
2018-09-05T20:27:49.976Z,51.68
2018-09-05T20:29:55.625Z,51.23
2018-09-05T20:32:01.038Z,50.81
2018-09-05T20:34:08.561Z,50.87
2018-09-05T20:36:15.931Z,50.79
2018-09-05T20:38:26.804Z,50.88
2018-09-05T20:40:33.058Z,50.53
2018-09-05T20:42:40.709Z,50.81
2018-09-05T20:44:45.861Z,49.95
2018-09-05T20:46:51.660Z,50.17
2018-09-05T20:48:56.936Z,49.82
2018-09-05T20:51:02.328Z,50.05
2018-09-05T20:53:08.064Z,50.74
2018-09-05T20:55:13.307Z,50.37
2018-09-05T20:57:18.308Z,50.29
2018-09-05T20:59:23.359Z,50.37
2018-09-05T21:01:28.367Z,50.14
2018-09-05T21:03:33.658Z,49.71
2018-09-05T21:05:41.779Z,49.61
2018-09-05T21:07:46.818Z,49.50
2018-09-05T21:09:51.765Z,49.39
2018-09-05T21:11:57.161Z,49.33
2018-09-05T21:14:02.412Z,50.14
2018-09-05T21:16:08.283Z,50.73
2018-09-05T21:18:13.638Z,50.47
2018-09-05T21:20:18.501Z,49.78
2018-09-05T21:22:23.811Z,49.58
2018-09-05T21:24:28.933Z,48.47
2018-09-05T21:26:34.195Z,48.74
2018-09-05T21:28:39.532Z,48.39
2018-09-05T21:30:45.316Z,48.29
2018-09-05T21:32:50.556Z,47.76
2018-09-05T21:34:55.541Z,47.74
2018-09-05T21:37:00.331Z,47.95
2018-09-05T21:39:07.009Z,47.81
2018-09-05T21:41:12.157Z,47.45
2018-09-05T21:43:17.230Z,47.30
2018-09-05T21:45:22.030Z,47.08
2018-09-05T21:47:27.233Z,46.87
2018-09-05T21:49:32.273Z,46.48
2018-09-05T21:51:37.200Z,46.45
2018-09-05T21:53:41.997Z,46.67
2018-09-05T21:55:47.012Z,46.99
2018-09-05T21:57:51.891Z,47.08
2018-09-05T21:59:56.631Z,47.23
2018-09-05T22:02:01.349Z,47.33
2018-09-05T22:04:06.226Z,47.47
2018-09-05T22:06:11.111Z,47.84
2018-09-05T22:08:15.903Z,48.00
2018-09-05T22:10:20.848Z,47.85
2018-09-05T22:12:25.627Z,47.86
2018-09-05T22:14:30.388Z,48.24
2018-09-05T22:16:35.165Z,47.85
2018-09-05T22:18:39.971Z,48.05
2018-09-05T22:20:44.721Z,47.76
2018-09-05T22:22:49.642Z,48.12
2018-09-05T22:24:54.864Z,48.14
2018-09-05T22:26:59.652Z,47.83
2018-09-05T22:29:04.540Z,47.87
2018-09-05T22:31:09.524Z,47.01
2018-09-05T22:33:14.366Z,47.03
2018-09-05T22:35:19.234Z,47.00
2018-09-05T22:37:24.665Z,46.91
2018-09-05T22:39:29.456Z,46.75
2018-09-05T22:41:34.209Z,46.96
2018-09-05T22:43:55.839Z,47.20
2018-09-05T22:46:17.228Z,47.88
2018-09-05T22:48:49.279Z,48.24
2018-09-05T22:51:15.826Z,47.66
2018-09-05T22:57:51.403Z,48.12
2018-09-05T23:04:16.576Z,47.67
2018-09-05T23:07:11.774Z,47.93
2018-09-05T23:11:28.073Z,48.72
2018-09-05T23:13:49.368Z,48.88
2018-09-05T23:16:10.688Z,48.72
2018-09-05T23:18:42.802Z,48.90
2018-09-05T23:21:26.512Z,49.34
2018-09-05T23:23:47.900Z,50.07
2018-09-05T23:25:52.765Z,50.41
2018-09-05T23:27:57.826Z,52.16
2018-09-05T23:30:02.755Z,52.76
2018-09-05T23:32:07.832Z,54.00
2018-09-05T23:34:12.810Z,54.47
2018-09-05T23:36:17.957Z,55.28
2018-09-05T23:38:22.996Z,56.55
2018-09-05T23:40:28.024Z,57.47
2018-09-05T23:42:33.379Z,56.88
2018-09-05T23:44:38.303Z,58.25
2018-09-05T23:46:43.788Z,59.07
2018-09-05T23:48:48.696Z,58.67
2018-09-05T23:50:54.097Z,59.12
2018-09-05T23:52:58.820Z,58.87
2018-09-05T23:55:03.680Z,59.31
2018-09-05T23:57:08.459Z,59.53
2018-09-05T23:59:13.153Z,61.09
